Observation data for Brownfield on 08/01/2020      Previous  Date  Next       Current Mesonet Observations  Soil Data  Daily Summary Page  Observations in Plain Language
KBWS 010500Z 06004KT 25/11 A3014 RMK A01 T02470110  RH  044%=      5-min Rain = 0
KBWS 010505Z 07005KT 25/11 A3015 RMK A01 T02450109  RH  044%=      5-min Rain = 0
KBWS 010510Z 06005KT 25/11 A3015 RMK A01 T02450109  RH  044%=      5-min Rain = 0
KBWS 010515Z 06005KT 24/11 A3016 RMK A01 T02440108  RH  044%=      5-min Rain = 0
KBWS 010520Z 07007KT 24/11 A3016 RMK A01 T02420106  RH  044%=      5-min Rain = 0
KBWS 010525Z 07007KT 24/11 A3016 RMK A01 T02420107  RH  044%=      5-min Rain = 0
KBWS 010530Z 08006KT 24/11 A3016 RMK A01 T02410109  RH  045%=      5-min Rain = 0
KBWS 010535Z 09005KT 24/10 A3016 RMK A01 T02360103  RH  044%=      5-min Rain = 0
KBWS 010540Z 09005KT 24/10 A3016 RMK A01 T02350104  RH  045%=      5-min Rain = 0
KBWS 010545Z 08004KT 23/11 A3016 RMK A01 T02330105  RH  046%=      5-min Rain = 0
KBWS 010550Z 08004KT 23/11 A3016 RMK A01 T02310106  RH  047%=      5-min Rain = 0
KBWS 010555Z 08004KT 23/11 A3015 RMK A01 T02290106  RH  047%=      5-min Rain = 0
KBWS 010600Z 07004KT 23/11 A3015 RMK A01 T02290110  RH  049%=      5-min Rain = 0
KBWS 010605Z 05004KT 23/11 A3016 RMK A01 T02290110  RH  049%=      5-min Rain = 0
KBWS 010610Z 05005KT 23/11 A3015 RMK A01 T02270108  RH  049%=      5-min Rain = 0
KBWS 010615Z 05004KT 23/11 A3016 RMK A01 T02280107  RH  048%=      5-min Rain = 0
KBWS 010620Z 05004KT 23/11 A3016 RMK A01 T02280108  RH  048%=      5-min Rain = 0
KBWS 010625Z 05004KT 23/11 A3016 RMK A01 T02290107  RH  048%=      5-min Rain = 0
KBWS 010630Z 03004KT 23/11 A3015 RMK A01 T02280107  RH  048%=      5-min Rain = 0
KBWS 010635Z 03004KT 23/11 A3016 RMK A01 T02250108  RH  049%=      5-min Rain = 0
KBWS 010640Z 05004KT 23/11 A3015 RMK A01 T02270110  RH  049%=      5-min Rain = 0
KBWS 010645Z 05003KT 23/11 A3015 RMK A01 T02270110  RH  049%=      5-min Rain = 0
KBWS 010650Z 05003KT 23/11 A3015 RMK A01 T02250109  RH  050%=      5-min Rain = 0
KBWS 010655Z 04002KT 22/11 A3015 RMK A01 T02230108  RH  050%=      5-min Rain = 0
KBWS 010700Z 04003KT 23/11 A3015 RMK A01 T02250107  RH  049%=      5-min Rain = 0
KBWS 010705Z 04003KT 23/11 A3015 RMK A01 T02260108  RH  049%=      5-min Rain = 0
KBWS 010710Z 06003KT 23/11 A3015 RMK A01 T02270111  RH  050%=      5-min Rain = 0
KBWS 010715Z 07003KT 23/12 A3014 RMK A01 T02270118  RH  052%=      5-min Rain = 0
KBWS 010720Z 06003KT 23/12 A3014 RMK A01 T02250117  RH  053%=      5-min Rain = 0
KBWS 010725Z 07004KT 22/12 A3014 RMK A01 T02220115  RH  053%=      5-min Rain = 0
KBWS 010730Z 06004KT 22/12 A3014 RMK A01 T02220115  RH  053%=      5-min Rain = 0
KBWS 010735Z 05003KT 22/11 A3014 RMK A01 T02200114  RH  053%=      5-min Rain = 0
KBWS 010740Z 03003KT 22/11 A3015 RMK A01 T02160111  RH  053%=      5-min Rain = 0
KBWS 010745Z 05002KT 22/11 A3014 RMK A01 T02170110  RH  052%=      5-min Rain = 0
KBWS 010750Z 06001KT 22/11 A3014 RMK A01 T02170113  RH  053%=      5-min Rain = 0
KBWS 010755Z 35001KT 22/11 A3014 RMK A01 T02170110  RH  052%=      5-min Rain = 0
KBWS 010800Z 32002KT 22/11 A3014 RMK A01 T02180109  RH  051%=      5-min Rain = 0
KBWS 010805Z 32002KT 22/11 A3014 RMK A01 T02180110  RH  052%=      5-min Rain = 0
KBWS 010810Z 32002KT 22/11 A3014 RMK A01 T02170111  RH  053%=      5-min Rain = 0
KBWS 010815Z 31004KT 22/11 A3014 RMK A01 T02150113  RH  054%=      5-min Rain = 0
KBWS 010820Z 30005KT 22/12 A3014 RMK A01 T02150116  RH  055%=      5-min Rain = 0
KBWS 010825Z 30005KT 21/12 A3014 RMK A01 T02130121  RH  058%=      5-min Rain = 0
KBWS 010830Z 30005KT 21/12 A3014 RMK A01 T02110119  RH  058%=      5-min Rain = 0
KBWS 010835Z 29004KT 21/12 A3013 RMK A01 T02100117  RH  057%=      5-min Rain = 0
KBWS 010840Z 29006KT 21/12 A3013 RMK A01 T02100116  RH  057%=      5-min Rain = 0
KBWS 010845Z 29005KT 21/12 A3013 RMK A01 T02090115  RH  057%=      5-min Rain = 0
KBWS 010850Z 30004KT 21/12 A3013 RMK A01 T02080115  RH  057%=      5-min Rain = 0
KBWS 010855Z 31003KT 21/12 A3013 RMK A01 T02080116  RH  058%=      5-min Rain = 0
KBWS 010900Z 31002KT 21/12 A3013 RMK A01 T02070116  RH  058%=      5-min Rain = 0
KBWS 010905Z 32002KT 21/12 A3013 RMK A01 T02070116  RH  058%=      5-min Rain = 0
KBWS 010910Z 32003KT 21/12 A3013 RMK A01 T02070115  RH  058%=      5-min Rain = 0
KBWS 010915Z 33003KT 21/11 A3013 RMK A01 T02080114  RH  057%=      5-min Rain = 0
KBWS 010920Z 34003KT 21/11 A3013 RMK A01 T02090111  RH  055%=      5-min Rain = 0
KBWS 010925Z 34002KT 21/11 A3013 RMK A01 T02100110  RH  055%=      5-min Rain = 0
KBWS 010930Z 34002KT 21/11 A3013 RMK A01 T02090110  RH  055%=      5-min Rain = 0
KBWS 010935Z 33003KT 21/11 A3013 RMK A01 T02070111  RH  056%=      5-min Rain = 0
KBWS 010940Z 33003KT 21/11 A3013 RMK A01 T02050112  RH  057%=      5-min Rain = 0
KBWS 010945Z 33003KT 20/11 A3012 RMK A01 T02030112  RH  058%=      5-min Rain = 0
KBWS 010950Z 30001KT 20/11 A3012 RMK A01 T02030112  RH  058%=      5-min Rain = 0
KBWS 010955Z 27001KT 21/11 A3012 RMK A01 T02060112  RH  057%=      5-min Rain = 0
KBWS 011000Z 29001KT 21/11 A3012 RMK A01 T02080111  RH  056%=      5-min Rain = 0
KBWS 011005Z 30000KT 20/11 A3012 RMK A01 T02040110  RH  057%=      5-min Rain = 0
KBWS 011010Z 06001KT 20/11 A3012 RMK A01 T02010108  RH  057%=      5-min Rain = 0
KBWS 011015Z 06001KT 20/11 A3012 RMK A01 T01990109  RH  058%=      5-min Rain = 0
KBWS 011020Z 06001KT 20/11 A3012 RMK A01 T01980110  RH  059%=      5-min Rain = 0
KBWS 011025Z 07001KT 20/11 A3012 RMK A01 T01990112  RH  059%=      5-min Rain = 0
KBWS 011030Z 06002KT 20/11 A3012 RMK A01 T01980113  RH  060%=      5-min Rain = 0
KBWS 011035Z 04002KT 20/11 A3012 RMK A01 T01960113  RH  061%=      5-min Rain = 0
KBWS 011040Z 06001KT 19/11 A3013 RMK A01 T01940113  RH  062%=      5-min Rain = 0
KBWS 011045Z 06002KT 19/11 A3013 RMK A01 T01940114  RH  062%=      5-min Rain = 0
KBWS 011050Z 06002KT 19/11 A3013 RMK A01 T01940114  RH  062%=      5-min Rain = 0
KBWS 011055Z 05002KT 20/12 A3013 RMK A01 T01970115  RH  061%=      5-min Rain = 0
KBWS 011100Z 05003KT 20/12 A3013 RMK A01 T01980117  RH  062%=      5-min Rain = 0
KBWS 011105Z 05003KT 20/12 A3013 RMK A01 T01990121  RH  063%=      5-min Rain = 0
KBWS 011110Z 07002KT 20/12 A3013 RMK A01 T01990119  RH  062%=      5-min Rain = 0
KBWS 011115Z 07002KT 20/12 A3013 RMK A01 T01950119  RH  064%=      5-min Rain = 0
KBWS 011120Z 04000KT 19/12 A3013 RMK A01 T01920118  RH  065%=      5-min Rain = 0
KBWS 011125Z 08000KT 19/12 A3013 RMK A01 T01930117  RH  064%=      5-min Rain = 0
KBWS 011130Z 09001KT 19/11 A3013 RMK A01 T01920113  RH  062%=      5-min Rain = 0
KBWS 011135Z 09000KT 19/12 A3013 RMK A01 T01890115  RH  064%=      5-min Rain = 0
KBWS 011140Z 00000KT 19/12 A3013 RMK A01 T01900116  RH  064%=      5-min Rain = 0
KBWS 011145Z 05000KT 19/12 A3013 RMK A01 T01930115  RH  063%=      5-min Rain = 0
KBWS 011150Z 30003KT 19/11 A3014 RMK A01 T01880111  RH  063%=      5-min Rain = 0
KBWS 011155Z 29003KT 19/11 A3014 RMK A01 T01850113  RH  065%=      5-min Rain = 0
KBWS 011200Z 29004KT 19/12 A3014 RMK A01 T01850119  RH  068%=      5-min Rain = 0
KBWS 011205Z 29005KT 18/12 A3014 RMK A01 T01840118  RH  068%=      5-min Rain = 0
KBWS 011210Z 30004KT 18/12 A3014 RMK A01 T01840117  RH  068%=      5-min Rain = 0
KBWS 011215Z 30005KT 18/12 A3014 RMK A01 T01840116  RH  067%=      5-min Rain = 0
KBWS 011220Z 30004KT 19/11 A3014 RMK A01 T01860113  RH  065%=      5-min Rain = 0
KBWS 011225Z 31003KT 19/11 A3014 RMK A01 T01870112  RH  064%=      5-min Rain = 0
KBWS 011230Z 31004KT 19/11 A3014 RMK A01 T01870112  RH  064%=      5-min Rain = 0
KBWS 011235Z 31003KT 19/11 A3014 RMK A01 T01890113  RH  064%=      5-min Rain = 0
KBWS 011240Z 30002KT 19/11 A3014 RMK A01 T01920113  RH  062%=      5-min Rain = 0
KBWS 011245Z 29002KT 20/11 A3014 RMK A01 T01950113  RH  061%=      5-min Rain = 0
KBWS 011250Z 29003KT 20/11 A3014 RMK A01 T01990113  RH  060%=      5-min Rain = 0
KBWS 011255Z 28002KT 20/11 A3014 RMK A01 T02020111  RH  058%=      5-min Rain = 0
KBWS 011300Z 29004KT 21/11 A3014 RMK A01 T02050112  RH  057%=      5-min Rain = 0
KBWS 011305Z 29005KT 21/11 A3014 RMK A01 T02070113  RH  057%=      5-min Rain = 0
KBWS 011310Z 29005KT 21/12 A3014 RMK A01 T02080115  RH  057%=      5-min Rain = 0
KBWS 011315Z 29004KT 21/11 A3014 RMK A01 T02110114  RH  056%=      5-min Rain = 0
KBWS 011320Z 30004KT 21/12 A3014 RMK A01 T02120116  RH  056%=      5-min Rain = 0
KBWS 011325Z 30005KT 21/12 A3014 RMK A01 T02140117  RH  056%=      5-min Rain = 0
KBWS 011330Z 30004KT 22/12 A3014 RMK A01 T02190118  RH  054%=      5-min Rain = 0
KBWS 011335Z 30005KT 22/12 A3015 RMK A01 T02230117  RH  053%=      5-min Rain = 0
KBWS 011340Z 31005KT 23/12 A3015 RMK A01 T02260118  RH  052%=      5-min Rain = 0
KBWS 011345Z 35005KT 23/12 A3016 RMK A01 T02260121  RH  053%=      5-min Rain = 0
KBWS 011350Z 01009KT 23/12 A3017 RMK A01 T02300120  RH  052%=      5-min Rain = 0
KBWS 011355Z 36007KT 23/12 A3017 RMK A01 T02330119  RH  050%=      5-min Rain = 0
KBWS 011400Z 01010KT 24/12 A3018 RMK A01 T02350120  RH  050%=      5-min Rain = 0
KBWS 011405Z 01009G14KT 24/12 A3018 RMK A01 T02350117  RH  049%=      5-min Rain = 0
KBWS 011410Z 36007KT 24/12 A3018 RMK A01 T02390120  RH  049%=      5-min Rain = 0
KBWS 011415Z 01007KT 24/12 A3018 RMK A01 T02420123  RH  049%=      5-min Rain = 0
KBWS 011420Z 02008KT 25/12 A3018 RMK A01 T02450123  RH  048%=      5-min Rain = 0
KBWS 011425Z 35005KT 24/12 A3017 RMK A01 T02430122  RH  049%=      5-min Rain = 0
KBWS 011430Z 01004KT 25/12 A3017 RMK A01 T02460124  RH  048%=      5-min Rain = 0
KBWS 011435Z 03005KT 25/12 A3017 RMK A01 T02490124  RH  048%=      5-min Rain = 0
KBWS 011440Z 04004KT 25/13 A3017 RMK A01 T02510125  RH  047%=      5-min Rain = 0
KBWS 011445Z 04002KT 26/13 A3017 RMK A01 T02560127  RH  046%=      5-min Rain = 0
KBWS 011450Z 08001KT 26/13 A3017 RMK A01 T02600127  RH  045%=      5-min Rain = 0
KBWS 011455Z 13001KT 27/13 A3017 RMK A01 T02660127  RH  044%=      5-min Rain = 0
KBWS 011500Z 01002KT 27/13 A3017 RMK A01 T02680128  RH  044%=      5-min Rain = 0
KBWS 011505Z 04001KT 27/13 A3017 RMK A01 T02700130  RH  044%=      5-min Rain = 0
KBWS 011510Z 12001KT 28/13 A3017 RMK A01 T02760130  RH  042%=      5-min Rain = 0
KBWS 011515Z 23003KT 27/13 A3017 RMK A01 T02730129  RH  043%=      5-min Rain = 0
KBWS 011520Z 24002KT 27/13 A3017 RMK A01 T02740129  RH  043%=      5-min Rain = 0
KBWS 011525Z 23002KT 27/13 A3017 RMK A01 T02730131  RH  043%=      5-min Rain = 0
KBWS 011530Z 20004KT 28/13 A3017 RMK A01 T02760131  RH  042%=      5-min Rain = 0
KBWS 011535Z 21004KT 28/13 A3017 RMK A01 T02770133  RH  043%=      5-min Rain = 0
KBWS 011540Z 25004KT 28/13 A3017 RMK A01 T02790133  RH  042%=      5-min Rain = 0
KBWS 011545Z 25005KT 28/13 A3017 RMK A01 T02820133  RH  041%=      5-min Rain = 0
KBWS 011550Z 23003KT 28/13 A3017 RMK A01 T02810132  RH  042%=      5-min Rain = 0
KBWS 011555Z 24006G11KT 28/13 A3017 RMK A01 T02840131  RH  040%=      5-min Rain = 0
KBWS 011600Z 26005G10KT 29/13 A3017 RMK A01 T02870129  RH  039%=      5-min Rain = 0
KBWS 011605Z 25005KT 29/13 A3017 RMK A01 T02890129  RH  039%=      5-min Rain = 0
KBWS 011610Z 27005KT 29/13 A3017 RMK A01 T02910129  RH  039%=      5-min Rain = 0
KBWS 011615Z 24005KT 29/12 A3017 RMK A01 T02910124  RH  037%=      5-min Rain = 0
KBWS 011620Z 23004G10KT 29/13 A3017 RMK A01 T02910125  RH  037%=      5-min Rain = 0
KBWS 011625Z 25006KT 29/12 A3017 RMK A01 T02940124  RH  037%=      5-min Rain = 0
KBWS 011630Z 23004KT 30/12 A3016 RMK A01 T02960115  RH  034%=      5-min Rain = 0
KBWS 011635Z 23004KT 30/11 A3016 RMK A01 T03000105  RH  031%=      5-min Rain = 0
KBWS 011640Z 25004KT 30/10 A3016 RMK A01 T03020102  RH  030%=      5-min Rain = 0
KBWS 011645Z 23003KT 30/10 A3016 RMK A01 T03030102  RH  030%=      5-min Rain = 0
KBWS 011650Z 26006KT 30/10 A3016 RMK A01 T03040104  RH  030%=      5-min Rain = 0
KBWS 011655Z 26005KT 31/10 A3016 RMK A01 T03080102  RH  029%=      5-min Rain = 0
KBWS 011700Z 28005G10KT 31/10 A3016 RMK A01 T03100100  RH  028%=      5-min Rain = 0
KBWS 011705Z 30005KT 31/10 A3016 RMK A01 T03110098  RH  028%=      5-min Rain = 0
KBWS 011710Z 28006KT 32/10 A3016 RMK A01 T03170101  RH  027%=      5-min Rain = 0
KBWS 011715Z 25005KT 31/10 A3016 RMK A01 T03140101  RH  028%=      5-min Rain = 0
KBWS 011720Z 31004G10KT 31/10 A3016 RMK A01 T03120099  RH  028%=      5-min Rain = 0
KBWS 011725Z 32007G12KT 31/10 A3016 RMK A01 T03130096  RH  027%=      5-min Rain = 0
KBWS 011730Z 36006KT 31/10 A3016 RMK A01 T03110098  RH  028%=      5-min Rain = 0
KBWS 011735Z 33006KT 31/10 A3016 RMK A01 T03100099  RH  028%=      5-min Rain = 0
KBWS 011740Z 31007KT 31/10 A3015 RMK A01 T03140101  RH  028%=      5-min Rain = 0
KBWS 011745Z 30005KT 32/10 A3015 RMK A01 T03150101  RH  028%=      5-min Rain = 0
KBWS 011750Z 28005G10KT 32/10 A3015 RMK A01 T03190102  RH  027%=      5-min Rain = 0
KBWS 011755Z 33007KT 32/10 A3015 RMK A01 T03210095  RH  026%=      5-min Rain = 0
KBWS 011800Z 00005KT 32/09 A3015 RMK A01 T03160092  RH  026%=      5-min Rain = 0
KBWS 011805Z 33006KT 32/09 A3015 RMK A01 T03210088  RH  024%=      5-min Rain = 0
KBWS 011810Z 00005KT 32/09 A3015 RMK A01 T03210086  RH  024%=      5-min Rain = 0
KBWS 011815Z 02002KT 32/09 A3015 RMK A01 T03200085  RH  024%=      5-min Rain = 0
KBWS 011820Z 28005KT 32/08 A3014 RMK A01 T03230080  RH  023%=      5-min Rain = 0
KBWS 011825Z 35007KT 32/08 A3014 RMK A01 T03230080  RH  023%=      5-min Rain = 0
KBWS 011830Z 34006KT 32/08 A3014 RMK A01 T03240083  RH  023%=      5-min Rain = 0
KBWS 011835Z 06003KT 32/08 A3014 RMK A01 T03240083  RH  023%=      5-min Rain = 0
KBWS 011840Z 07005KT 33/09 A3014 RMK A01 T03250086  RH  023%=      5-min Rain = 0
KBWS 011845Z 34004KT 33/08 A3014 RMK A01 T03290082  RH  022%=      5-min Rain = 0
KBWS 011850Z 32002KT 33/08 A3014 RMK A01 T03300080  RH  022%=      5-min Rain = 0
KBWS 011855Z 35008G17KT 33/08 A3013 RMK A01 T03330082  RH  022%=      5-min Rain = 0
KBWS 011900Z 33005KT 34/08 A3014 RMK A01 T03360083  RH  022%=      5-min Rain = 0
KBWS 011905Z 32007KT 33/08 A3013 RMK A01 T03320083  RH  022%=      5-min Rain = 0
KBWS 011910Z 34009G14KT 34/08 A3013 RMK A01 T03400082  RH  021%=      5-min Rain = 0
KBWS 011915Z 35010G15KT 33/08 A3013 RMK A01 T03340082  RH  022%=      5-min Rain = 0
KBWS 011920Z 34006G12KT 33/08 A3013 RMK A01 T03340081  RH  022%=      5-min Rain = 0
KBWS 011925Z 35005KT 33/08 A3012 RMK A01 T03330082  RH  022%=      5-min Rain = 0
KBWS 011930Z 35007G13KT 34/08 A3012 RMK A01 T03400083  RH  021%=      5-min Rain = 0
KBWS 011935Z 34009KT 34/08 A3012 RMK A01 T03370082  RH  021%=      5-min Rain = 0
KBWS 011940Z 34009G16KT 34/08 A3012 RMK A01 T03360083  RH  022%=      5-min Rain = 0
KBWS 011945Z 00006G11KT 33/08 A3011 RMK A01 T03330082  RH  022%=      5-min Rain = 0
KBWS 011950Z 00005G13KT 34/08 A3011 RMK A01 T03370084  RH  022%=      5-min Rain = 0
KBWS 011955Z 01005KT 34/08 A3011 RMK A01 T03430084  RH  021%=      5-min Rain = 0
KBWS 012000Z 01005KT 35/08 A3011 RMK A01 T03460084  RH  021%=      5-min Rain = 0
KBWS 012005Z 33004G9KT 35/08 A3011 RMK A01 T03460082  RH  020%=      5-min Rain = 0
KBWS 012010Z 27007G17KT 34/08 A301 RMK A01 T03440083  RH  021%=      5-min Rain = 0
KBWS 012015Z 23006KT 35/08 A301 RMK A01 T03460084  RH  021%=      5-min Rain = 0
KBWS 012020Z 25008KT 35/08 A301 RMK A01 T03540082  RH  019%=      5-min Rain = 0
KBWS 012025Z 24003G9KT 35/08 A301 RMK A01 T03490081  RH  020%=      5-min Rain = 0
KBWS 012030Z 00005G13KT 35/08 A3009 RMK A01 T03480082  RH  020%=      5-min Rain = 0
KBWS 012035Z 00005G11KT 35/08 A3009 RMK A01 T03460082  RH  020%=      5-min Rain = 0
KBWS 012040Z 32003KT 34/08 A3009 RMK A01 T03430082  RH  021%=      5-min Rain = 0
KBWS 012045Z 34007G12KT 35/08 A3009 RMK A01 T03470080  RH  020%=      5-min Rain = 0
KBWS 012050Z 31007KT 35/08 A3008 RMK A01 T03510080  RH  020%=      5-min Rain = 0
KBWS 012055Z 05001KT 35/08 A3008 RMK A01 T03500077  RH  019%=      5-min Rain = 0
KBWS 012100Z 04003KT 35/08 A3008 RMK A01 T03490077  RH  019%=      5-min Rain = 0
KBWS 012105Z 30009KT 35/08 A3008 RMK A01 T03490079  RH  020%=      5-min Rain = 0
KBWS 012110Z 29009G14KT 36/08 A3008 RMK A01 T03570079  RH  019%=      5-min Rain = 0
KBWS 012115Z 33005KT 35/08 A3007 RMK A01 T03500078  RH  019%=      5-min Rain = 0
KBWS 012120Z 01006G13KT 35/08 A3007 RMK A01 T03500079  RH  020%=      5-min Rain = 0
KBWS 012125Z 01009KT 35/08 A3007 RMK A01 T03450077  RH  020%=      5-min Rain = 0
KBWS 012130Z 03006G11KT 34/08 A3007 RMK A01 T03360078  RH  021%=      5-min Rain = 0
KBWS 012135Z 01005G10KT 34/08 A3007 RMK A01 T03350078  RH  021%=      5-min Rain = 0
KBWS 012140Z 02005KT 33/08 A3007 RMK A01 T03340078  RH  021%=      5-min Rain = 0
KBWS 012145Z 35009KT 34/08 A3007 RMK A01 T03440080  RH  020%=      5-min Rain = 0
KBWS 012150Z 04010KT 35/08 A3006 RMK A01 T03500083  RH  020%=      5-min Rain = 0
KBWS 012155Z 03011KT 35/08 A3006 RMK A01 T03540080  RH  019%=      5-min Rain = 0
KBWS 012200Z 04008G16KT 35/08 A3006 RMK A01 T03510076  RH  019%=      5-min Rain = 0
KBWS 012205Z 34006G11KT 35/07 A3006 RMK A01 T03450071  RH  019%=      5-min Rain = 0
KBWS 012210Z 31007G12KT 35/07 A3006 RMK A01 T03480070  RH  018%=      5-min Rain = 0
KBWS 012215Z 35005G10KT 34/08 A3006 RMK A01 T03440077  RH  020%=      5-min Rain = 0
KBWS 012220Z 08005KT 35/08 A3005 RMK A01 T03480078  RH  020%=      5-min Rain = 0
KBWS 012225Z 05005KT 35/08 A3005 RMK A01 T03500079  RH  019%=      5-min Rain = 0
KBWS 012230Z 01008KT 35/07 A3005 RMK A01 T03510073  RH  019%=      5-min Rain = 0
KBWS 012235Z 01007KT 35/07 A3005 RMK A01 T03520072  RH  018%=      5-min Rain = 0
KBWS 012240Z 34004KT 35/07 A3005 RMK A01 T03520070  RH  018%=      5-min Rain = 0
KBWS 012245Z 33007G12KT 35/07 A3005 RMK A01 T03530071  RH  018%=      5-min Rain = 0
KBWS 012250Z 01011KT 36/07 A3004 RMK A01 T03550073  RH  018%=      5-min Rain = 0
KBWS 012255Z 01009G15KT 35/07 A3005 RMK A01 T03510073  RH  019%=      5-min Rain = 0
KBWS 012300Z 01003KT 35/07 A3004 RMK A01 T03490070  RH  018%=      5-min Rain = 0
KBWS 012305Z 36009G14KT 35/07 A3004 RMK A01 T03510068  RH  018%=      5-min Rain = 0
KBWS 012310Z 34009KT 35/07 A3004 RMK A01 T03520065  RH  017%=      5-min Rain = 0
KBWS 012315Z 33008G13KT 35/06 A3004 RMK A01 T03510064  RH  017%=      5-min Rain = 0
KBWS 012320Z 35007G12KT 35/07 A3004 RMK A01 T03500067  RH  018%=      5-min Rain = 0
KBWS 012325Z 02006KT 35/07 A3004 RMK A01 T03480067  RH  018%=      5-min Rain = 0
KBWS 012330Z 00008G17KT 35/07 A3003 RMK A01 T03450066  RH  018%=      5-min Rain = 0
KBWS 012335Z 03009KT 35/06 A3003 RMK A01 T03510064  RH  017%=      5-min Rain = 0
KBWS 012340Z 35009G14KT 35/06 A3003 RMK A01 T03470063  RH  018%=      5-min Rain = 0
KBWS 012345Z 35008G13KT 35/06 A3003 RMK A01 T03480064  RH  018%=      5-min Rain = 0
KBWS 012350Z 36009KT 35/06 A3003 RMK A01 T03470055  RH  017%=      5-min Rain = 0
KBWS 012355Z 35006KT 35/06 A3003 RMK A01 T03460056  RH  017%=      5-min Rain = 0
KBWS 020000Z 36011KT 35/05 A3003 RMK A01 T03470053  RH  016%=      5-min Rain = 0
KBWS 020005Z 00009KT 35/05 A3003 RMK A01 T03480053  RH  016%=      5-min Rain = 0
KBWS 020010Z 04008G15KT 35/06 A3002 RMK A01 T03480058  RH  017%=      5-min Rain = 0
KBWS 020015Z 05009KT 34/08 A3003 RMK A01 T03430075  RH  020%=      5-min Rain = 0
KBWS 020020Z 05011KT 34/08 A3003 RMK A01 T03440075  RH  020%=      5-min Rain = 0
KBWS 020025Z 05008G13KT 34/07 A3003 RMK A01 T03430069  RH  019%=      5-min Rain = 0
KBWS 020030Z 07006KT 34/07 A3003 RMK A01 T03440073  RH  019%=      5-min Rain = 0
KBWS 020035Z 04006KT 34/07 A3003 RMK A01 T03440069  RH  019%=      5-min Rain = 0
KBWS 020040Z 01009KT 34/06 A3003 RMK A01 T03430056  RH  017%=      5-min Rain = 0
KBWS 020045Z 35008KT 34/05 A3003 RMK A01 T03430050  RH  016%=      5-min Rain = 0
KBWS 020050Z 35006KT 34/06 A3003 RMK A01 T03430056  RH  017%=      5-min Rain = 0
KBWS 020055Z 05009G14KT 34/08 A3003 RMK A01 T03400077  RH  020%=      5-min Rain = 0
KBWS 020100Z 05009KT 34/08 A3003 RMK A01 T03360081  RH  021%=      5-min Rain = 0
KBWS 020105Z 05008KT 34/08 A3003 RMK A01 T03350080  RH  021%=      5-min Rain = 0
KBWS 020110Z 04006KT 33/07 A3003 RMK A01 T03340073  RH  020%=      5-min Rain = 0
KBWS 020115Z 06006KT 33/08 A3004 RMK A01 T03320084  RH  022%=      5-min Rain = 0
KBWS 020120Z 06007KT 33/09 A3004 RMK A01 T03290089  RH  024%=      5-min Rain = 0
KBWS 020125Z 07009KT 32/09 A3004 RMK A01 T03240094  RH  025%=      5-min Rain = 0
KBWS 020130Z 06007KT 32/10 A3004 RMK A01 T03210097  RH  026%=      5-min Rain = 0
KBWS 020135Z 07006KT 32/10 A3004 RMK A01 T03170100  RH  027%=      5-min Rain = 0
KBWS 020140Z 07006KT 31/10 A3004 RMK A01 T03130103  RH  028%=      5-min Rain = 0
KBWS 020145Z 06006KT 31/10 A3005 RMK A01 T03100103  RH  029%=      5-min Rain = 0
KBWS 020150Z 06006KT 31/10 A3005 RMK A01 T03080104  RH  029%=      5-min Rain = 0
KBWS 020155Z 07005KT 31/11 A3005 RMK A01 T03050105  RH  030%=      5-min Rain = 0
KBWS 020200Z 07004KT 30/11 A3005 RMK A01 T03010113  RH  032%=      5-min Rain = 0
KBWS 020205Z 06006KT 30/10 A3005 RMK A01 T02980103  RH  031%=      5-min Rain = 0
KBWS 020210Z 06006KT 30/10 A3005 RMK A01 T02980101  RH  030%=      5-min Rain = 0
KBWS 020215Z 07007KT 30/10 A3006 RMK A01 T02950102  RH  031%=      5-min Rain = 0
KBWS 020220Z 09011KT 29/10 A3006 RMK A01 T02940100  RH  031%=      5-min Rain = 0
KBWS 020225Z 09011KT 30/11 A3007 RMK A01 T02950105  RH  032%=      5-min Rain = 0
KBWS 020230Z 10010KT 29/11 A3007 RMK A01 T02920106  RH  033%=      5-min Rain = 0
KBWS 020235Z 11009KT 29/11 A3008 RMK A01 T02900108  RH  033%=      5-min Rain = 0
KBWS 020240Z 11008KT 29/11 A3008 RMK A01 T02890109  RH  034%=      5-min Rain = 0
KBWS 020245Z 10007KT 29/11 A3008 RMK A01 T02860109  RH  035%=      5-min Rain = 0
KBWS 020250Z 10007KT 28/11 A3008 RMK A01 T02830110  RH  035%=      5-min Rain = 0
KBWS 020255Z 10007KT 28/11 A3009 RMK A01 T02800111  RH  036%=      5-min Rain = 0
KBWS 020300Z 10007KT 28/11 A3009 RMK A01 T02780111  RH  037%=      5-min Rain = 0
KBWS 020305Z 09008KT 28/11 A3009 RMK A01 T02760112  RH  037%=      5-min Rain = 0
KBWS 020310Z 09006KT 28/11 A3009 RMK A01 T02760113  RH  037%=      5-min Rain = 0
KBWS 020315Z 10006KT 27/11 A301 RMK A01 T02740113  RH  038%=      5-min Rain = 0
KBWS 020320Z 11007KT 27/12 A301 RMK A01 T02730116  RH  039%=      5-min Rain = 0
KBWS 020325Z 11007KT 27/12 A301 RMK A01 T02720117  RH  040%=      5-min Rain = 0
KBWS 020330Z 11007KT 27/12 A3011 RMK A01 T02720118  RH  040%=      5-min Rain = 0
KBWS 020335Z 11006KT 27/12 A3011 RMK A01 T02710118  RH  040%=      5-min Rain = 0
KBWS 020340Z 09005KT 27/12 A3011 RMK A01 T02680118  RH  041%=      5-min Rain = 0
KBWS 020345Z 09005KT 27/12 A3011 RMK A01 T02660116  RH  041%=      5-min Rain = 0
KBWS 020350Z 10005KT 26/12 A3011 RMK A01 T02630116  RH  041%=      5-min Rain = 0
KBWS 020355Z 10005KT 26/12 A3012 RMK A01 T02600116  RH  042%=      5-min Rain = 0
KBWS 020400Z 10005KT 26/12 A3012 RMK A01 T02570116  RH  043%=      5-min Rain = 0
KBWS 020405Z 11005KT 26/12 A3012 RMK A01 T02550117  RH  044%=      5-min Rain = 0
KBWS 020410Z 11006KT 25/12 A3012 RMK A01 T02530119  RH  045%=      5-min Rain = 0
KBWS 020415Z 11006KT 25/12 A3012 RMK A01 T02500118  RH  045%=      5-min Rain = 0
KBWS 020420Z 12006KT 25/12 A3012 RMK A01 T02510120  RH  046%=      5-min Rain = 0
KBWS 020425Z 13005KT 25/12 A3012 RMK A01 T02490120  RH  046%=      5-min Rain = 0
KBWS 020430Z 13005KT 25/12 A3012 RMK A01 T02460119  RH  047%=      5-min Rain = 0
KBWS 020435Z 12005KT 24/12 A3012 RMK A01 T02440120  RH  047%=      5-min Rain = 0
KBWS 020440Z 11006KT 24/12 A3012 RMK A01 T02440119  RH  047%=      5-min Rain = 0
KBWS 020445Z 10005KT 25/12 A3013 RMK A01 T02470119  RH  047%=      5-min Rain = 0
KBWS 020450Z 10005KT 25/12 A3012 RMK A01 T02470120  RH  047%=      5-min Rain = 0
KBWS 020455Z 09005KT 25/12 A3013 RMK A01 T02450119  RH  047%=      5-min Rain = 0

Page generated in 0.0112 seconds.